Time;durP1;ratioP1;P1;durP2;ratioP2;P2;SDS_P1;SDS_P2;PMS_P1;PMS_P2;Temp;Humidity;BMP_temperature;BMP_pressure;BME280_temperature;BME280_humidity;BME280_pressure;Samples;Min_cycle;Max_cycle;Signal;HPM_P1;HPM_P2
2022/01/07 00:02:03;;;;;;;2.03;1.35;;;-1.60;99.90;;;;;;5125716;27;20042;-51
2022/01/07 00:04:32;;;;;;;4.28;1.40;;;-1.70;99.90;;;;;;5126972;27;20039;-49
2022/01/07 00:06:59;;;;;;;2.85;0.93;;;-1.90;99.90;;;;;;5124806;27;20038;-49
2022/01/07 00:09:26;;;;;;;3.15;0.93;;;-1.90;99.90;;;;;;5129075;27;20134;-49
2022/01/07 00:11:53;;;;;;;3.30;1.23;;;-2.00;99.90;;;;;;5127248;27;20064;-50
2022/01/07 00:14:19;;;;;;;4.18;1.40;;;-2.00;99.90;;;;;;5127628;27;20251;-54
2022/01/07 00:16:47;;;;;;;4.75;1.73;;;-2.10;99.90;;;;;;5121585;27;20043;-51
2022/01/07 00:19:15;;;;;;;5.75;1.25;;;-2.10;99.90;;;;;;5104930;27;20040;-54
2022/01/07 00:21:42;;;;;;;3.13;1.73;;;-2.20;99.90;;;;;;5101048;28;20040;-52
2022/01/07 00:24:09;;;;;;;3.00;1.40;;;-2.10;99.90;;;;;;5099509;28;20085;-53
2022/01/07 00:26:36;;;;;;;1.73;1.27;;;-2.10;99.90;;;;;;5099844;28;20048;-49
2022/01/07 00:29:03;;;;;;;0.63;0.60;;;-2.10;99.90;;;;;;5102633;28;20447;-51
2022/01/07 00:31:29;;;;;;;2.67;1.00;;;-2.10;99.90;;;;;;5126388;28;20039;-51
2022/01/07 00:33:56;;;;;;;5.82;1.48;;;-2.10;99.90;;;;;;5122408;28;20292;-49
2022/01/07 00:36:23;;;;;;;3.33;1.58;;;-2.10;99.90;;;;;;5129249;28;20039;-52
2022/01/07 00:38:50;;;;;;;7.45;1.67;;;-2.10;99.90;;;;;;5129351;28;20038;-50
2022/01/07 00:41:16;;;;;;;2.25;1.05;;;-2.10;99.90;;;;;;5124592;28;20047;-53
2022/01/07 00:43:43;;;;;;;4.40;1.30;;;-2.10;99.90;;;;;;5116904;28;20043;-53
2022/01/07 00:46:12;;;;;;;4.70;1.42;;;-2.20;99.90;;;;;;5103028;28;20036;-51
2022/01/07 00:48:39;;;;;;;3.92;1.20;;;-2.20;99.90;;;;;;5107016;28;20057;-54
2022/01/07 00:51:06;;;;;;;0.88;0.63;;;-2.20;99.90;;;;;;5107944;28;20101;-49
2022/01/07 00:53:32;;;;;;;2.50;0.82;;;-2.20;99.90;;;;;;5105194;28;20247;-50
2022/01/07 00:55:59;;;;;;;3.03;1.63;;;-2.20;99.90;;;;;;5111071;28;20109;-50
2022/01/07 00:58:26;;;;;;;1.20;0.88;;;-2.20;99.90;;;;;;5117133;28;20096;-50
2022/01/07 01:00:53;;;;;;;2.78;1.17;;;-2.30;99.90;;;;;;5109314;28;20097;-53
2022/01/07 01:03:20;;;;;;;;;;;-2.30;99.90;;;;;;5111952;28;20055;-53
2022/01/07 01:05:48;;;;;;;4.20;1.08;;;-2.40;99.90;;;;;;5110635;28;19988;-51
2022/01/07 01:08:15;;;;;;;3.03;1.20;;;-2.40;99.90;;;;;;5111235;28;20491;-50
2022/01/07 01:10:41;;;;;;;2.17;0.77;;;-2.30;99.90;;;;;;5110967;28;20036;-51
2022/01/07 01:13:09;;;;;;;2.53;0.90;;;-2.30;99.90;;;;;;5111431;28;20050;-52
2022/01/07 01:15:36;;;;;;;3.75;1.10;;;-2.30;99.90;;;;;;5110866;28;20048;-51
2022/01/07 01:18:02;;;;;;;2.55;1.08;;;-2.30;99.90;;;;;;5111464;28;20170;-50
2022/01/07 01:20:31;;;;;;;3.70;1.48;;;-2.30;99.90;;;;;;5111366;28;20093;-54
2022/01/07 01:22:58;;;;;;;4.85;1.10;;;-2.30;99.90;;;;;;5111312;28;20543;-51
2022/01/07 01:25:25;;;;;;;7.38;1.33;;;-2.40;99.90;;;;;;5110954;28;20104;-55
2022/01/07 01:27:52;;;;;;;3.05;1.05;;;-2.40;99.90;;;;;;5111213;28;20683;-51
2022/01/07 01:30:19;;;;;;;4.97;1.25;;;-2.40;99.90;;;;;;5111409;28;20040;-50
2022/01/07 01:32:48;;;;;;;2.17;1.10;;;-2.50;99.90;;;;;;5111172;28;20499;-51
2022/01/07 01:35:16;;;;;;;2.63;1.13;;;-2.50;99.90;;;;;;5112223;28;20040;-52
2022/01/07 01:37:43;;;;;;;3.42;1.30;;;-2.60;99.90;;;;;;5114889;28;20505;-52
2022/01/07 01:40:10;;;;;;;2.20;1.23;;;-2.70;99.90;;;;;;5114990;28;20058;-50
2022/01/07 01:42:38;;;;;;;6.18;1.88;;;-2.70;99.90;;;;;;5114685;28;20044;-51
2022/01/07 01:45:07;;;;;;;6.18;1.77;;;-2.70;99.90;;;;;;5114749;28;20089;-52
2022/01/07 01:47:34;;;;;;;2.95;1.25;;;-2.80;99.90;;;;;;5114445;28;20553;-50
2022/01/07 01:50:01;;;;;;;3.95;1.33;;;-2.80;99.90;;;;;;5114662;28;20085;-52
2022/01/07 01:52:28;;;;;;;7.47;1.48;;;-2.80;99.90;;;;;;5114275;28;20039;-51
2022/01/07 01:54:55;;;;;;;4.78;1.70;;;-2.90;99.90;;;;;;5114648;28;20088;-53
2022/01/07 01:57:22;;;;;;;7.55;2.53;;;-2.90;99.90;;;;;;5114169;28;20097;-52
2022/01/07 01:59:49;;;;;;;7.65;2.05;;;-2.90;99.90;;;;;;5114394;28;20585;-54
2022/01/07 02:02:16;;;;;;;4.85;1.83;;;-2.90;99.90;;;;;;5114211;28;20487;-49
2022/01/07 02:04:43;;;;;;;4.85;1.60;;;-2.90;99.90;;;;;;5114708;28;20444;-50
2022/01/07 02:07:13;;;;;;;3.80;1.75;;;-3.00;99.90;;;;;;5114092;28;20050;-51
2022/01/07 02:09:40;;;;;;;1.40;1.00;;;-3.00;99.90;;;;;;5114317;28;20046;-49
2022/01/07 02:12:09;;;;;;;5.70;1.60;;;-3.00;99.90;;;;;;5113957;28;20569;-50
2022/01/07 02:14:36;;;;;;;5.75;1.33;;;-3.00;99.90;;;;;;5113761;28;20115;-49
2022/01/07 02:17:10;;;;;;;;;;;-3.00;99.90;;;;;;5114087;28;20047;-50
2022/01/07 02:19:38;;;;;;;2.38;1.13;;;-3.00;99.90;;;;;;5113408;28;19919;-52
2022/01/07 02:22:06;;;;;;;5.07;1.42;;;-3.00;99.90;;;;;;5113878;28;20043;-50
2022/01/07 02:24:34;;;;;;;2.78;1.13;;;-3.00;99.90;;;;;;5114158;28;20118;-53
2022/01/07 02:27:02;;;;;;;3.33;1.10;;;-3.00;99.90;;;;;;5113709;28;20043;-49
2022/01/07 02:29:29;;;;;;;2.65;1.02;;;-3.00;99.90;;;;;;5114174;28;20044;-54
2022/01/07 02:31:56;;;;;;;3.13;1.23;;;-3.00;99.90;;;;;;5113803;28;20043;-56
2022/01/07 02:34:24;;;;;;;;;;;-3.00;99.90;;;;;;5114063;28;20047;-51
2022/01/07 02:36:51;;;;;;;2.70;1.15;;;-3.00;99.90;;;;;;5113681;28;20321;-51
2022/01/07 02:39:18;;;;;;;6.28;1.58;;;-2.90;99.90;;;;;;5114021;28;20548;-51
2022/01/07 02:41:45;;;;;;;5.13;1.30;;;-2.90;99.90;;;;;;5113466;28;20043;-49
2022/01/07 02:44:12;;;;;;;2.00;0.73;;;-2.80;99.90;;;;;;5113604;28;20506;-51
2022/01/07 02:46:40;;;;;;;2.70;1.15;;;-2.80;99.90;;;;;;5112374;28;20058;-49
2022/01/07 02:49:11;;;;;;;3.90;1.23;;;-2.80;99.90;;;;;;5113504;28;20530;-50
2022/01/07 02:51:38;;;;;;;3.03;1.42;;;-2.90;99.90;;;;;;5113387;28;20047;-52
2022/01/07 02:54:07;;;;;;;5.07;1.40;;;-3.00;99.90;;;;;;5113368;28;20115;-50
2022/01/07 02:56:35;;;;;;;4.00;1.38;;;-3.10;99.90;;;;;;5112916;28;20500;-51
2022/01/07 02:59:03;;;;;;;2.20;1.10;;;-3.00;99.90;;;;;;5113482;28;20035;-51
2022/01/07 03:01:30;;;;;;;3.05;1.50;;;-3.00;99.90;;;;;;5113306;28;20061;-49
2022/01/07 03:03:57;;;;;;;;;;;-3.10;99.90;;;;;;5113517;28;20495;-52
2022/01/07 03:06:24;;;;;;;10.82;3.17;;;-3.10;99.90;;;;;;5112903;28;19932;-50
2022/01/07 03:08:51;;;;;;;;;;;-3.10;99.90;;;;;;5113596;28;20054;-52
2022/01/07 03:11:20;;;;;;;14.25;4.40;;;-3.10;99.90;;;;;;5113078;28;20026;-49
2022/01/07 03:13:47;;;;;;;14.15;4.35;;;-3.00;99.90;;;;;;5112917;28;20043;-49
2022/01/07 03:16:14;;;;;;;10.95;3.67;;;-3.00;99.90;;;;;;5112668;28;20131;-49
2022/01/07 03:18:41;;;;;;;3.30;1.63;;;-3.00;99.90;;;;;;5113307;28;20456;-51
2022/01/07 03:21:09;;;;;;;3.78;1.70;;;-3.10;99.90;;;;;;5094934;28;20035;-51
2022/01/07 03:23:37;;;;;;;1.90;1.10;;;-3.10;99.90;;;;;;5112650;28;20054;-50
2022/01/07 03:26:04;;;;;;;5.97;1.70;;;-3.20;99.90;;;;;;5112624;28;20067;-51
2022/01/07 03:28:31;;;;;;;;;;;-3.20;99.90;;;;;;5113252;28;20407;-49
2022/01/07 03:30:58;;;;;;;4.40;1.50;;;-3.20;99.90;;;;;;5112788;28;20002;-49
2022/01/07 03:33:25;;;;;;;3.22;1.73;;;-3.20;99.90;;;;;;5112523;28;20031;-50
2022/01/07 03:35:53;;;;;;;2.13;1.10;;;-3.20;99.90;;;;;;5112039;28;20043;-49
2022/01/07 03:38:20;;;;;;;;;;;-3.20;99.90;;;;;;5113021;28;20092;-52
2022/01/07 03:40:48;;;;;;;2.75;1.10;;;-3.20;99.90;;;;;;5112872;28;19920;-49
2022/01/07 03:43:14;;;;;;;3.60;1.40;;;-3.20;99.90;;;;;;5112341;28;20757;-52
2022/01/07 03:45:42;;;;;;;2.80;1.13;;;-3.30;99.90;;;;;;5112194;28;20097;-51
2022/01/07 03:48:09;;;;;;;;;;;-3.40;99.90;;;;;;5112939;28;20047;-51
2022/01/07 03:50:35;;;;;;;5.07;1.10;;;-3.40;99.90;;;;;;5112605;28;19920;-50
2022/01/07 03:53:02;;;;;;;3.03;1.45;;;-3.40;99.90;;;;;;5112404;28;20042;-50
2022/01/07 03:55:31;;;;;;;2.88;1.45;;;-3.50;99.90;;;;;;5111928;28;20032;-51
2022/01/07 03:57:59;;;;;;;3.63;1.50;;;-3.40;99.90;;;;;;5111992;28;20081;-49
2022/01/07 04:00:34;;;;;;;2.72;1.33;;;-3.50;99.90;;;;;;5112200;28;20043;-51
2022/01/07 04:03:03;;;;;;;2.33;1.20;;;-3.60;99.90;;;;;;5112062;28;20408;-50
2022/01/07 04:05:31;;;;;;;2.15;1.02;;;-3.70;99.90;;;;;;5111828;28;20044;-50
2022/01/07 04:07:58;;;;;;;3.78;1.15;;;-3.70;99.90;;;;;;5112309;28;20043;-49
2022/01/07 04:10:25;;;;;;;5.90;1.60;;;-3.70;99.90;;;;;;5111887;28;20052;-54
2022/01/07 04:12:52;;;;;;;4.22;1.73;;;-3.70;99.90;;;;;;5111917;28;20058;-50
2022/01/07 04:15:21;;;;;;;2.35;1.10;;;-3.70;99.90;;;;;;5111838;28;20122;-49
2022/01/07 04:17:50;;;;;;;7.65;1.75;;;-3.60;99.90;;;;;;5111959;28;20059;-49
2022/01/07 04:20:20;;;;;;;6.60;2.17;;;-3.70;99.90;;;;;;5111880;28;20085;-53
2022/01/07 04:22:47;;;;;;;4.55;2.33;;;-3.60;99.90;;;;;;5111936;28;20491;-49
2022/01/07 04:25:17;;;;;;;;;;;-3.60;99.90;;;;;;5112096;28;20044;-53
2022/01/07 04:27:45;;;;;;;5.07;2.33;;;-3.60;99.90;;;;;;5112000;28;19988;-52
2022/01/07 04:30:13;;;;;;;4.93;2.38;;;-3.60;99.90;;;;;;5112009;28;20047;-51
2022/01/07 04:32:42;;;;;;;7.60;3.03;;;-3.50;99.90;;;;;;5111553;28;20126;-49
2022/01/07 04:35:11;;;;;;;7.18;2.58;;;-3.60;99.90;;;;;;5111830;28;20055;-51
2022/01/07 04:37:39;;;;;;;4.57;2.38;;;-3.50;99.90;;;;;;5112152;28;20070;-52
2022/01/07 04:40:08;;;;;;;5.07;2.42;;;-3.60;99.90;;;;;;5111550;28;20039;-50
2022/01/07 04:42:35;;;;;;;4.18;2.10;;;-3.60;99.90;;;;;;5111599;28;20481;-53
2022/01/07 04:45:04;;;;;;;7.70;2.38;;;-3.60;99.90;;;;;;5111820;28;20051;-50
2022/01/07 04:47:32;;;;;;;5.93;2.03;;;-3.50;99.90;;;;;;5111499;28;20130;-49
2022/01/07 04:49:59;;;;;;;5.32;2.00;;;-3.60;99.90;;;;;;5111734;28;20047;-52
2022/01/07 04:52:26;;;;;;;4.90;1.67;;;-3.70;99.90;;;;;;5111503;28;20044;-50
2022/01/07 04:54:53;;;;;;;4.47;1.70;;;-3.70;99.90;;;;;;5111525;28;20039;-49
2022/01/07 04:57:20;;;;;;;3.90;1.75;;;-3.60;99.90;;;;;;5111231;28;20081;-49
2022/01/07 04:59:46;;;;;;;3.33;1.55;;;-3.70;99.90;;;;;;5111701;28;20047;-54
2022/01/07 05:02:13;;;;;;;3.60;1.58;;;-3.70;99.90;;;;;;5111640;28;20101;-52
2022/01/07 05:04:40;;;;;;;;;;;-3.60;99.90;;;;;;5112012;28;20225;-49
2022/01/07 05:07:07;;;;;;;1.40;1.00;;;-3.70;99.90;;;;;;5093205;28;20287;-50
2022/01/07 05:09:34;;;;;;;3.10;1.50;;;-3.70;99.90;;;;;;5112079;28;20061;-52
2022/01/07 05:12:02;;;;;;;6.97;2.13;;;-3.70;99.90;;;;;;5115660;28;20047;-49
2022/01/07 05:14:29;;;;;;;4.55;1.88;;;-3.80;99.90;;;;;;5115966;28;20069;-53
2022/01/07 05:16:56;;;;;;;;;;;-3.80;99.90;;;;;;5115553;28;20123;-50
2022/01/07 05:19:23;;;;;;;4.43;2.25;;;-3.70;99.90;;;;;;5115214;28;19927;-49
2022/01/07 05:21:50;;;;;;;5.72;2.17;;;-3.70;99.90;;;;;;5115479;28;20044;-52
2022/01/07 05:24:17;;;;;;;4.30;2.15;;;-3.60;99.90;;;;;;5115117;28;20058;-51
2022/01/07 05:26:44;;;;;;;5.05;2.50;;;-3.60;99.90;;;;;;5114840;28;20119;-51
2022/01/07 05:29:11;;;;;;;7.03;3.22;;;-3.60;99.90;;;;;;5115310;28;20492;-50
2022/01/07 05:31:37;;;;;;;18.48;6.50;;;-3.60;99.90;;;;;;5115132;28;20055;-51
2022/01/07 05:34:04;;;;;;;14.88;5.15;;;-3.70;99.90;;;;;;5142137;22;20035;-54
2022/01/07 05:36:50;;;;;;;9.30;4.40;;;-3.60;99.90;;;;;;5134263;27;20514;-53
2022/01/07 05:39:17;;;;;;;8.50;3.45;;;-3.60;99.90;;;;;;5135530;27;20054;-53
2022/01/07 05:41:44;;;;;;;8.27;4.38;;;-3.70;99.90;;;;;;5135639;27;20046;-53
2022/01/07 05:44:10;;;;;;;10.48;4.47;;;-3.70;99.90;;;;;;5135584;27;20047;-54
2022/01/07 05:46:38;;;;;;;7.40;4.00;;;-3.80;99.90;;;;;;5135161;27;20108;-52
2022/01/07 05:49:05;;;;;;;15.10;4.70;;;-3.90;99.90;;;;;;5135329;27;20058;-55
2022/01/07 05:51:32;;;;;;;13.45;5.05;;;-4.00;99.90;;;;;;5127466;27;20538;-53
2022/01/07 05:53:59;;;;;;;;;;;-4.10;99.90;;;;;;5119617;27;20046;-55
2022/01/07 05:56:26;;;;;;;11.45;4.25;;;-4.20;99.90;;;;;;5114341;28;19920;-53
2022/01/07 05:58:53;;;;;;;11.98;4.95;;;-4.30;99.90;;;;;;5114547;28;20122;-53
2022/01/07 06:01:20;;;;;;;;;;;-4.30;99.90;;;;;;5114985;28;20128;-54
2022/01/07 06:03:47;;;;;;;11.68;4.60;;;-4.40;99.90;;;;;;5114838;28;19924;-52
2022/01/07 06:06:14;;;;;;;8.73;4.03;;;-4.40;99.90;;;;;;5114284;28;20438;-56
2022/01/07 06:08:41;;;;;;;15.00;4.22;;;-4.40;99.90;;;;;;5114295;28;20127;-54
2022/01/07 06:11:08;;;;;;;13.18;4.60;;;-4.40;99.90;;;;;;5114524;28;20059;-53
2022/01/07 06:13:36;;;;;;;10.98;4.47;;;-4.40;99.90;;;;;;5114381;28;20051;-54
2022/01/07 06:16:04;;;;;;;10.48;4.00;;;-4.40;99.90;;;;;;5114044;28;20039;-54
2022/01/07 06:18:31;;;;;;;12.40;4.63;;;-4.40;99.90;;;;;;5114120;28;20050;-54
2022/01/07 06:20:58;;;;;;;8.20;3.80;;;-4.30;99.90;;;;;;5114160;28;20446;-54
2022/01/07 06:23:24;;;;;;;10.05;4.13;;;-4.30;99.90;;;;;;5114064;28;20046;-54
2022/01/07 06:25:51;;;;;;;4.85;2.17;;;-4.20;99.90;;;;;;5113824;28;20297;-54
2022/01/07 06:28:19;;;;;;;5.65;2.53;;;-4.10;99.90;;;;;;5114224;28;20043;-53
2022/01/07 06:30:46;;;;;;;7.50;2.85;;;-4.00;99.90;;;;;;5113872;28;20043;-55
2022/01/07 06:33:13;;;;;;;8.90;3.08;;;-3.90;99.90;;;;;;5113705;28;20606;-51
2022/01/07 06:35:39;;;;;;;5.15;2.53;;;-3.90;99.90;;;;;;5113633;28;20385;-51
2022/01/07 06:38:06;;;;;;;5.75;2.20;;;-3.80;99.90;;;;;;5113961;28;20118;-53
2022/01/07 06:40:33;;;;;;;3.72;2.08;;;-3.70;99.90;;;;;;5113760;28;20039;-56
2022/01/07 06:43:00;;;;;;;6.13;2.10;;;-3.70;99.90;;;;;;5113828;28;20110;-54
2022/01/07 06:45:27;;;;;;;4.82;2.08;;;-3.70;99.90;;;;;;5113269;28;20044;-55
2022/01/07 06:47:54;;;;;;;7.25;3.47;;;-3.70;99.90;;;;;;5113719;28;20500;-52
2022/01/07 06:50:21;;;;;;;7.10;2.97;;;-3.70;99.90;;;;;;5113685;28;20043;-55
2022/01/07 06:52:48;;;;;;;5.28;3.08;;;-3.70;99.90;;;;;;5113278;28;20071;-53
2022/01/07 06:55:15;;;;;;;7.07;2.65;;;-3.70;99.90;;;;;;5113181;28;20036;-55
2022/01/07 06:57:48;;;;;;;5.97;2.47;;;-3.70;99.90;;;;;;5113536;28;20039;-55
2022/01/07 07:00:15;;;;;;;4.63;2.00;;;-3.70;99.90;;;;;;5113295;28;20085;-54
2022/01/07 07:02:42;;;;;;;;;;;-3.70;99.90;;;;;;5113588;28;20567;-53
2022/01/07 07:05:09;;;;;;;4.45;2.00;;;-3.70;99.90;;;;;;5113095;28;19930;-53
2022/01/07 07:07:36;;;;;;;3.88;2.28;;;-3.70;99.90;;;;;;5113177;28;20043;-52
2022/01/07 07:10:04;;;;;;;8.07;3.15;;;-3.70;99.90;;;;;;5113492;28;20043;-55
2022/01/07 07:12:31;;;;;;;10.80;3.38;;;-3.70;99.90;;;;;;5113174;28;20048;-52
2022/01/07 07:14:59;;;;;;;9.48;3.03;;;-3.70;99.90;;;;;;5112883;28;20453;-52
2022/01/07 07:17:26;;;;;;;8.13;2.92;;;-3.70;99.90;;;;;;5112837;28;20100;-52
2022/01/07 07:19:53;;;;;;;7.57;3.03;;;-3.70;99.90;;;;;;5113143;28;20159;-54
2022/01/07 07:22:20;;;;;;;5.90;2.65;;;-3.60;99.90;;;;;;5112826;28;20055;-52
2022/01/07 07:24:47;;;;;;;6.07;2.97;;;-3.60;99.90;;;;;;5112970;28;20039;-55
2022/01/07 07:27:14;;;;;;;10.68;3.10;;;-3.60;99.90;;;;;;5112520;28;20063;-55
2022/01/07 07:29:41;;;;;;;8.82;2.75;;;-3.60;99.90;;;;;;5112883;28;20075;-56
2022/01/07 07:32:10;;;;;;;5.40;2.67;;;-3.60;99.90;;;;;;5115034;27;20047;-54
2022/01/07 07:37:10;;;;;;;6.72;2.83;;;-3.70;99.90;;;;;;5114732;27;20044;-54
2022/01/07 07:39:37;;;;;;;12.90;3.95;;;-3.80;99.90;;;;;;5112921;28;20589;-54
2022/01/07 07:42:05;;;;;;;6.10;3.08;;;-3.70;99.90;;;;;;5126620;27;20081;-52
2022/01/07 07:44:32;;;;;;;11.15;3.78;;;-3.70;99.90;;;;;;5133078;27;20509;-54
2022/01/07 07:46:59;;;;;;;9.15;3.40;;;-3.70;99.90;;;;;;5132911;27;20035;-52
2022/01/07 07:49:26;;;;;;;10.00;4.25;;;-3.70;99.90;;;;;;5132997;27;20047;-56
2022/01/07 07:51:53;;;;;;;12.10;4.68;;;-3.70;99.90;;;;;;5124714;27;20036;-52
2022/01/07 07:54:20;;;;;;;9.63;4.30;;;-3.70;99.90;;;;;;5112252;28;20050;-54
2022/01/07 07:56:47;;;;;;;13.75;5.43;;;-3.70;99.90;;;;;;5114684;27;20047;-55
2022/01/07 07:59:14;;;;;;;9.27;4.30;;;-3.70;99.90;;;;;;5112448;28;20092;-55
2022/01/07 08:01:41;;;;;;;11.43;4.75;;;-3.70;99.90;;;;;;5112057;28;20046;-55
2022/01/07 08:04:11;;;;;;;20.20;7.68;;;-3.80;99.90;;;;;;5112297;28;20044;-52
2022/01/07 08:06:38;;;;;;;13.70;5.63;;;-3.70;99.90;;;;;;5119810;27;20047;-52
2022/01/07 08:09:05;;;;;;;14.82;4.95;;;-3.80;99.90;;;;;;5132718;27;20039;-53
2022/01/07 08:11:39;;;;;;;12.65;4.57;;;-3.70;99.90;;;;;;5132683;27;20047;-52
2022/01/07 08:16:51;;;;;;;14.68;5.38;;;-3.70;99.90;;;;;;5128874;27;20084;-53
2022/01/07 08:19:18;;;;;;;11.77;4.47;;;-3.70;99.90;;;;;;5132562;27;20053;-52
2022/01/07 08:21:45;;;;;;;10.70;3.38;;;-3.60;99.90;;;;;;5132538;27;20433;-53
2022/01/07 08:24:12;;;;;;;14.32;4.88;;;-3.60;99.90;;;;;;5132638;27;20043;-51
2022/01/07 08:26:39;;;;;;;12.30;4.25;;;-3.60;99.90;;;;;;5126024;27;20050;-55
2022/01/07 08:29:08;;;;;;;11.52;4.45;;;-3.60;99.90;;;;;;5112052;28;20081;-54
2022/01/07 08:36:54;;;;;;;10.93;4.10;;;-3.60;99.90;;;;;;5117384;28;20051;-52
2022/01/07 08:39:22;;;;;;;10.00;4.43;;;-3.60;99.90;;;;;;5132328;28;20047;-52
2022/01/07 08:41:49;;;;;;;8.82;3.97;;;-3.60;99.90;;;;;;5132438;28;20061;-52
2022/01/07 08:44:16;;;;;;;10.55;4.07;;;-3.60;99.90;;;;;;5132435;27;20043;-51
2022/01/07 08:46:43;;;;;;;11.15;4.65;;;-3.40;99.90;;;;;;5132584;27;20036;-52
2022/01/07 08:49:10;;;;;;;17.05;5.55;;;-3.20;99.90;;;;;;5115839;28;20105;-53
2022/01/07 08:51:37;;;;;;;18.25;7.05;;;-3.00;99.90;;;;;;5116016;28;20052;-56
2022/01/07 08:54:04;;;;;;;14.27;6.00;;;-2.90;99.90;;;;;;5115793;28;20039;-53
2022/01/07 08:56:32;;;;;;;16.23;6.15;;;-2.80;99.90;;;;;;5115550;28;20061;-53
2022/01/07 08:58:59;;;;;;;16.42;6.38;;;-2.70;99.90;;;;;;5115323;28;20040;-52
2022/01/07 09:01:28;;;;;;;18.60;5.30;;;-2.70;99.90;;;;;;5115522;28;20047;-51
2022/01/07 09:03:56;;;;;;;14.48;5.72;;;-2.70;99.90;;;;;;5115549;28;20040;-52
2022/01/07 09:06:23;;;;;;;9.90;4.07;;;-2.50;99.90;;;;;;5115451;28;20457;-53
2022/01/07 09:08:49;;;;;;;10.02;3.90;;;-2.40;99.90;;;;;;5115506;28;20073;-52
2022/01/07 09:11:16;;;;;;;10.75;4.35;;;-2.30;99.90;;;;;;5115659;28;20054;-55
2022/01/07 09:13:45;;;;;;;13.30;5.28;;;-2.30;99.90;;;;;;5115262;28;20104;-52
2022/01/07 09:16:12;;;;;;;14.23;5.13;;;-2.20;99.90;;;;;;5115075;28;20052;-53
2022/01/07 09:18:39;;;;;;;12.68;4.90;;;-2.00;99.90;;;;;;5115363;28;20043;-53
2022/01/07 09:21:09;;;;;;;12.45;4.35;;;-2.00;99.90;;;;;;5115490;28;20210;-56
2022/01/07 09:23:40;;;;;;;7.57;3.70;;;-1.80;99.90;;;;;;5115312;28;20039;-56
2022/01/07 09:26:09;;;;;;;9.68;3.75;;;-1.80;99.90;;;;;;5114847;28;20451;-54
2022/01/07 09:28:36;;;;;;;6.18;3.17;;;-1.80;99.90;;;;;;5115099;28;20048;-55
2022/01/07 09:31:03;;;;;;;;;;;-1.70;99.90;;;;;;5116010;28;20373;-51
2022/01/07 09:33:30;;;;;;;7.82;4.00;;;-1.60;99.90;;;;;;5115017;27;19923;-55
2022/01/07 09:36:17;;;;;;;10.18;4.05;;;-1.50;99.90;;;;;;5114814;28;20051;-55
2022/01/07 09:38:43;;;;;;;8.77;4.20;;;-1.50;99.90;;;;;;5115002;28;20116;-55
2022/01/07 09:41:10;;;;;;;9.90;4.18;;;-1.50;99.90;;;;;;5115047;28;20046;-54
2022/01/07 09:43:37;;;;;;;8.38;4.30;;;-1.50;99.90;;;;;;5114886;28;20050;-56
2022/01/07 09:46:04;;;;;;;8.60;4.07;;;-1.50;99.90;;;;;;5114615;28;20050;-55
2022/01/07 09:48:31;;;;;;;7.00;3.78;;;-1.60;99.90;;;;;;5114928;28;20097;-52
2022/01/07 09:50:59;;;;;;;10.38;4.15;;;-1.60;99.90;;;;;;5114575;28;20067;-54
2022/01/07 09:53:27;;;;;;;9.57;3.88;;;-1.60;99.90;;;;;;5114657;28;20047;-53
2022/01/07 09:55:53;;;;;;;9.10;3.70;;;-1.60;99.90;;;;;;5113933;28;20043;-52
2022/01/07 09:58:20;;;;;;;9.38;4.10;;;-1.60;99.90;;;;;;5114745;28;20039;-52
2022/01/07 10:00:47;;;;;;;9.43;3.25;;;-1.50;99.90;;;;;;5114435;28;20046;-54
2022/01/07 10:03:17;;;;;;;9.63;3.70;;;-1.50;99.90;;;;;;5114726;28;20097;-53
2022/01/07 10:05:47;;;;;;;9.40;3.63;;;-1.40;99.90;;;;;;5114032;28;20085;-56
2022/01/07 10:08:21;;;;;;;9.52;3.35;;;-1.40;99.90;;;;;;5114336;28;20046;-52
2022/01/07 10:11:20;;;;;;;5.85;3.10;;;-1.30;99.90;;;;;;5114454;28;20479;-55
2022/01/07 10:14:16;;;;;;;5.93;2.60;;;-1.20;99.90;;;;;;5114072;28;20487;-52
2022/01/07 10:16:53;;;;;;;8.77;3.80;;;-1.20;99.90;;;;;;5120733;27;20077;-54
2022/01/07 10:19:42;;;;;;;6.65;2.88;;;-1.10;99.90;;;;;;5134859;27;20039;-52
2022/01/07 10:22:15;;;;;;;6.82;3.65;;;-1.10;99.90;;;;;;5133352;27;20050;-55
2022/01/07 10:24:56;;;;;;;6.65;3.70;;;-1.10;99.90;;;;;;5134291;27;20043;-52
2022/01/07 10:27:33;;;;;;;9.88;4.22;;;-1.00;99.90;;;;;;5132858;27;20047;-52
2022/01/07 10:29:59;;;;;;;12.40;3.93;;;-1.00;99.90;;;;;;5134722;27;20072;-54
2022/01/07 10:32:31;;;;;;;8.15;3.80;;;-0.90;99.90;;;;;;5134827;27;20039;-52
2022/01/07 10:35:09;;;;;;;11.25;4.55;;;-0.90;99.90;;;;;;5134204;27;20444;-55
2022/01/07 10:37:52;;;;;;;9.63;4.88;;;-0.90;99.90;;;;;;5134473;27;20562;-52
2022/01/07 10:40:25;;;;;;;8.20;4.55;;;-0.90;99.90;;;;;;5134427;27;20111;-51
2022/01/07 10:43:09;;;;;;;10.30;4.68;;;-0.90;99.90;;;;;;5134380;27;20100;-54
2022/01/07 10:45:37;;;;;;;9.15;3.60;;;-0.90;99.90;;;;;;5133639;27;20104;-53
2022/01/07 10:48:06;;;;;;;5.70;3.70;;;-0.80;99.90;;;;;;5133959;27;20039;-54
2022/01/07 10:50:39;;;;;;;7.22;3.00;;;-0.70;99.90;;;;;;5134221;27;20563;-56
2022/01/07 10:53:17;;;;;;;5.55;2.78;;;-0.60;99.90;;;;;;5133412;27;20035;-56
2022/01/07 10:55:57;;;;;;;8.38;2.80;;;-0.50;99.90;;;;;;5129623;27;20051;-56
2022/01/07 10:58:24;;;;;;;6.00;2.92;;;-0.50;99.90;;;;;;5124419;27;20161;-56
2022/01/07 11:00:51;;;;;;;5.45;2.83;;;-0.50;99.90;;;;;;5113489;28;20456;-55
2022/01/07 11:03:18;;;;;;;6.10;2.75;;;-0.40;99.90;;;;;;5113184;28;20602;-57
2022/01/07 11:05:45;;;;;;;5.60;2.60;;;-0.40;99.90;;;;;;5112961;28;20039;-56
2022/01/07 11:08:15;;;;;;;6.47;2.75;;;-0.40;99.90;;;;;;5112392;28;20039;-57
2022/01/07 11:10:42;;;;;;;5.90;2.55;;;-0.30;99.90;;;;;;5113539;28;20122;-55
2022/01/07 11:13:10;;;;;;;;;;;-0.20;99.90;;;;;;5113380;28;20043;-55
2022/01/07 11:15:38;;;;;;;6.60;2.35;;;-0.20;99.90;;;;;;5112714;28;19919;-57
2022/01/07 11:18:05;;;;;;;6.32;2.90;;;-0.10;99.90;;;;;;5113359;28;20040;-56
2022/01/07 11:20:32;;;;;;;5.20;2.25;;;-0.20;99.90;;;;;;5112929;28;20052;-56
2022/01/07 11:22:59;;;;;;;4.95;2.42;;;-0.30;99.90;;;;;;5112728;28;20039;-56
2022/01/07 11:25:32;;;;;;;4.90;2.35;;;-0.30;99.90;;;;;;5112468;28;20035;-56
2022/01/07 11:28:00;;;;;;;5.20;2.15;;;-0.20;99.90;;;;;;5112885;28;20032;-55
2022/01/07 11:30:32;;;;;;;5.38;2.60;;;-0.20;99.90;;;;;;5112875;28;20097;-57
2022/01/07 11:33:00;;;;;;;5.65;2.05;;;-0.20;99.90;;;;;;5114868;27;20093;-57
2022/01/07 11:35:27;;;;;;;3.53;2.13;;;-0.10;99.90;;;;;;5112437;28;20058;-57
2022/01/07 11:37:56;;;;;;;5.50;2.40;;;0.00;99.90;;;;;;5117250;27;20049;-55
2022/01/07 11:40:31;;;;;;;4.50;2.03;;;0.10;99.90;;;;;;5133024;27;20074;-53
2022/01/07 11:43:17;;;;;;;4.65;1.80;;;0.10;99.90;;;;;;5132465;27;20039;-54
2022/01/07 11:45:45;;;;;;;3.22;1.75;;;0.10;99.90;;;;;;5132480;27;20039;-54
2022/01/07 11:48:16;;;;;;;2.88;1.35;;;0.20;99.90;;;;;;5132861;27;20046;-54
2022/01/07 11:50:55;;;;;;;4.18;1.98;;;0.30;99.90;;;;;;5133039;27;20445;-55
2022/01/07 11:53:23;;;;;;;5.88;2.20;;;0.40;99.90;;;;;;5132269;27;20047;-56
2022/01/07 11:55:50;;;;;;;5.57;2.00;;;0.60;99.90;;;;;;5122538;27;20027;-56
2022/01/07 11:58:17;;;;;;;4.85;2.13;;;0.60;99.90;;;;;;5124567;27;20048;-57
2022/01/07 12:00:47;;;;;;;;;;;0.40;99.90;;;;;;5133058;27;20050;-54
2022/01/07 12:03:28;;;;;;;5.07;2.25;;;0.40;99.90;;;;;;5132763;27;20478;-56
2022/01/07 12:05:55;;;;;;;4.13;2.10;;;0.40;99.90;;;;;;5132315;27;20092;-55
2022/01/07 12:09:03;;;;;;;7.15;2.38;;;0.50;99.90;;;;;;5132483;27;20041;-59
2022/01/07 12:11:35;;;;;;;6.82;2.10;;;0.60;99.90;;;;;;5132594;27;20046;-58
2022/01/07 12:14:06;;;;;;;3.38;1.80;;;0.70;99.90;;;;;;5132583;27;20146;-58
2022/01/07 12:16:34;;;;;;;4.15;2.30;;;0.70;99.90;;;;;;5132180;27;20035;-59
2022/01/07 12:19:16;;;;;;;5.50;2.60;;;0.70;99.90;;;;;;5131902;27;20067;-59
2022/01/07 12:21:44;;;;;;;5.10;2.25;;;0.80;99.90;;;;;;5132056;27;20039;-58
2022/01/07 12:24:31;;;;;;;8.15;3.58;;;0.90;99.90;;;;;;5131838;27;20050;-58
2022/01/07 12:27:02;;;;;;;16.27;6.15;;;1.10;99.90;;;;;;5130793;27;20059;-57
2022/01/07 12:29:43;;;;;;;6.63;2.60;;;1.10;99.90;;;;;;5132237;27;20218;-56
2022/01/07 12:32:11;;;;;;;6.30;2.45;;;1.00;99.90;;;;;;5114031;28;20047;-58
2022/01/07 12:34:47;;;;;;;7.55;2.47;;;1.10;99.90;;;;;;5132221;27;20043;-56
2022/01/07 12:37:23;;;;;;;5.55;2.22;;;1.10;99.90;;;;;;5132102;28;20050;-56
2022/01/07 12:40:01;;;;;;;5.10;2.30;;;1.30;99.90;;;;;;5132052;28;20380;-55
2022/01/07 12:42:35;;;;;;;16.55;2.45;;;1.40;99.90;;;;;;5132324;28;20035;-55
2022/01/07 12:45:02;;;;;;;4.68;2.38;;;1.30;99.90;;;;;;5126115;28;20040;-54
2022/01/07 12:47:30;;;;;;;3.72;2.22;;;1.50;99.90;;;;;;5120350;28;20039;-52
2022/01/07 12:49:59;;;;;;;4.85;2.20;;;1.30;99.90;;;;;;5122899;28;20042;-54
2022/01/07 12:52:31;;;;;;;5.78;2.70;;;1.30;99.90;;;;;;5121793;28;20036;-51
2022/01/07 12:55:26;;;;;;;6.13;2.22;;;1.20;99.90;;;;;;5129734;28;20043;-57
2022/01/07 12:58:04;;;;;;;4.45;1.90;;;1.20;99.90;;;;;;5132317;28;20438;-60
2022/01/07 13:00:36;;;;;;;5.32;2.05;;;1.40;99.90;;;;;;5132196;28;20460;-54
2022/01/07 13:03:08;;;;;;;7.05;2.72;;;1.40;99.90;;;;;;5132155;28;20073;-53
2022/01/07 13:05:37;;;;;;;5.32;2.42;;;1.50;99.90;;;;;;5131598;28;20092;-54
2022/01/07 13:08:11;;;;;;;5.63;2.13;;;1.60;99.90;;;;;;5132145;28;20043;-55
2022/01/07 13:10:40;;;;;;;6.95;1.50;;;1.70;99.90;;;;;;5132079;28;20071;-55